createdAt,value
2022-09-14T00:00:54.736Z,79.11
2022-09-14T00:01:46.562Z,79.01
2022-09-14T00:02:46.560Z,78.81
2022-09-14T00:03:46.396Z,80.02
2022-09-14T00:04:46.470Z,78.71
2022-09-14T00:05:46.389Z,79.41
2022-09-14T00:06:46.428Z,79.72
2022-09-14T00:07:46.347Z,79.82
2022-09-14T00:08:46.344Z,79.62
2022-09-14T00:09:46.645Z,79.32
2022-09-14T00:10:46.330Z,78.61
2022-09-14T00:11:46.339Z,79.01
2022-09-14T00:12:46.287Z,78.61
2022-09-14T00:13:46.293Z,79.11
2022-09-14T00:14:46.286Z,79.62
2022-09-14T00:15:46.268Z,79.92
2022-09-14T00:16:46.332Z,78.81
2022-09-14T00:17:46.274Z,79.11
2022-09-14T00:18:46.254Z,79.82
2022-09-14T00:19:46.232Z,79.21
2022-09-14T00:20:46.252Z,78.81
2022-09-14T00:21:46.226Z,78.81
2022-09-14T00:22:46.230Z,79.46
2022-09-14T00:23:46.198Z,78.91
2022-09-14T00:24:46.194Z,78.55
2022-09-14T00:25:46.200Z,79.25
2022-09-14T00:26:46.156Z,79.66
2022-09-14T00:27:46.166Z,79.55
2022-09-14T00:28:46.208Z,79.35
2022-09-14T00:29:46.133Z,79.05
2022-09-14T00:30:46.133Z,78.95
2022-09-14T00:31:46.179Z,78.75
2022-09-14T00:32:46.107Z,79.46
2022-09-14T00:33:46.097Z,79.46
2022-09-14T00:34:46.093Z,78.85
2022-09-14T00:35:46.094Z,78.85
2022-09-14T00:36:46.062Z,79.55
2022-09-14T00:37:46.082Z,79.35
2022-09-14T00:38:46.064Z,79.25
2022-09-14T00:39:46.063Z,79.05
2022-09-14T00:40:46.027Z,79.25
2022-09-14T00:41:46.045Z,79.66
2022-09-14T00:42:46.021Z,80.36
2022-09-14T00:43:45.991Z,79.75
2022-09-14T00:44:45.997Z,80.16
2022-09-14T00:45:46.024Z,81.37
2022-09-14T00:46:45.970Z,80.77
2022-09-14T00:47:45.971Z,79.66
2022-09-14T00:48:45.953Z,79.75
2022-09-14T00:49:45.961Z,79.75
2022-09-14T00:50:45.949Z,80.26
2022-09-14T00:51:45.930Z,80.77
2022-09-14T00:52:45.923Z,79.55
2022-09-14T00:53:45.890Z,79.96
2022-09-14T00:54:45.913Z,79.96
2022-09-14T00:55:45.910Z,80.36
2022-09-14T00:56:45.854Z,79.96
2022-09-14T00:57:45.876Z,79.75
2022-09-14T00:58:45.833Z,79.66
2022-09-14T00:59:45.842Z,79.55
2022-09-14T01:00:45.859Z,80.46
2022-09-14T01:01:45.873Z,80.26
2022-09-14T01:02:45.810Z,79.66
2022-09-14T01:03:45.830Z,80.16
2022-09-14T01:04:45.787Z,80.46
2022-09-14T01:05:45.776Z,80.87
2022-09-14T01:06:45.784Z,80.26
2022-09-14T01:07:45.769Z,80.36
2022-09-14T01:08:45.745Z,79.75
2022-09-14T01:09:45.740Z,79.29
2022-09-14T01:10:45.724Z,79.49
2022-09-14T01:11:49.528Z,80.16
2022-09-14T01:12:45.727Z,79.75
2022-09-14T01:13:45.745Z,80.00
2022-09-14T01:14:45.699Z,80.10
2022-09-14T01:15:45.702Z,80.00
2022-09-14T01:16:45.746Z,79.59
2022-09-14T01:17:45.676Z,80.50
2022-09-14T01:18:45.657Z,80.80
2022-09-14T01:19:45.635Z,80.91
2022-09-14T01:20:45.630Z,80.80
2022-09-14T01:21:45.657Z,80.10
2022-09-14T01:22:45.631Z,80.40
2022-09-14T01:23:45.619Z,80.80
2022-09-14T01:24:45.591Z,80.20
2022-09-14T01:25:45.597Z,79.49
2022-09-14T01:26:45.570Z,79.90
2022-09-14T01:27:45.557Z,80.40
2022-09-14T01:28:45.554Z,80.00
2022-09-14T01:29:45.548Z,80.10
2022-09-14T01:30:45.535Z,80.00
2022-09-14T01:31:45.581Z,80.20
2022-09-14T01:32:45.518Z,80.60
2022-09-14T01:33:45.523Z,80.80
2022-09-14T01:34:45.507Z,81.41
2022-09-14T01:35:45.485Z,81.01
2022-09-14T01:36:45.486Z,81.11
2022-09-14T01:37:45.492Z,81.51
2022-09-14T01:38:45.459Z,81.41
2022-09-14T01:39:45.508Z,80.91
2022-09-14T01:40:45.422Z,80.10
2022-09-14T01:41:45.709Z,80.71
2022-09-14T01:42:45.414Z,80.91
2022-09-14T01:43:45.431Z,81.41
2022-09-14T01:44:45.446Z,81.41
2022-09-14T01:45:45.448Z,81.01
2022-09-14T01:46:45.369Z,81.11
2022-09-14T01:47:45.373Z,81.82
2022-09-14T01:48:45.354Z,82.02
2022-09-14T01:49:45.349Z,81.62
2022-09-14T01:50:45.395Z,81.51
2022-09-14T01:51:45.326Z,81.82
2022-09-14T01:52:45.321Z,81.82
2022-09-14T01:53:45.350Z,81.31
2022-09-14T01:54:45.306Z,81.82
2022-09-14T01:55:45.308Z,82.12
2022-09-14T01:56:45.277Z,81.71
2022-09-14T01:57:45.327Z,80.91
2022-09-14T01:58:45.262Z,81.71
2022-09-14T01:59:45.249Z,80.80
2022-09-14T02:00:45.285Z,81.01
2022-09-14T02:01:48.505Z,80.80
2022-09-14T02:02:45.256Z,81.31
2022-09-14T02:03:45.206Z,80.71
2022-09-14T02:04:45.241Z,81.21
2022-09-14T02:05:45.186Z,81.51
2022-09-14T02:06:45.191Z,81.11
2022-09-14T02:07:45.177Z,81.82
2022-09-14T02:08:45.174Z,81.82
2022-09-14T02:09:45.175Z,81.82
2022-09-14T02:10:45.145Z,81.92
2022-09-14T02:11:45.150Z,81.51
2022-09-14T02:12:45.129Z,82.02
2022-09-14T02:13:45.116Z,82.46
2022-09-14T02:14:45.113Z,81.55
2022-09-14T02:15:45.086Z,81.05
2022-09-14T02:16:45.142Z,81.05
2022-09-14T02:17:45.087Z,81.35
2022-09-14T02:18:45.086Z,81.45
2022-09-14T02:19:45.042Z,82.32
2022-09-14T02:20:45.076Z,82.32
2022-09-14T02:21:45.121Z,81.15
2022-09-14T02:22:45.043Z,80.80
2022-09-14T02:23:45.035Z,80.80
2022-09-14T02:24:45.026Z,81.41
2022-09-14T02:25:45.003Z,82.02
2022-09-14T02:26:44.992Z,80.74
2022-09-14T02:27:44.986Z,80.80
2022-09-14T02:28:44.966Z,81.01
2022-09-14T02:29:44.948Z,81.51
2022-09-14T02:30:44.968Z,82.16
2022-09-14T02:31:44.980Z,81.45
2022-09-14T02:32:44.924Z,81.45
2022-09-14T02:33:44.930Z,81.45
2022-09-14T02:34:44.907Z,81.45
2022-09-14T02:35:44.893Z,81.25
2022-09-14T02:36:44.944Z,81.45
2022-09-14T02:37:44.872Z,81.76
2022-09-14T02:38:44.867Z,82.16
2022-09-14T02:39:44.915Z,82.26
2022-09-14T02:40:44.836Z,82.06
2022-09-14T02:41:44.844Z,81.25
2022-09-14T02:42:44.863Z,81.15
2022-09-14T02:43:44.840Z,81.76
2022-09-14T02:44:44.831Z,81.85
2022-09-14T02:45:44.784Z,81.96
2022-09-14T02:46:44.846Z,82.16
2022-09-14T02:47:44.777Z,81.65
2022-09-14T02:48:44.770Z,81.25
2022-09-14T02:49:44.749Z,81.55
2022-09-14T02:50:44.737Z,81.65
2022-09-14T02:51:44.747Z,82.06
2022-09-14T02:52:44.739Z,81.65
2022-09-14T02:53:44.690Z,81.96
2022-09-14T02:54:44.719Z,82.36
2022-09-14T02:55:44.735Z,82.46
2022-09-14T02:56:44.695Z,81.85
2022-09-14T02:57:44.683Z,82.16
2022-09-14T02:58:44.658Z,82.26
2022-09-14T02:59:44.664Z,82.97
2022-09-14T03:00:44.713Z,82.87
2022-09-14T03:01:44.682Z,82.87
2022-09-14T03:02:44.630Z,83.37
2022-09-14T03:03:44.610Z,83.17
2022-09-14T03:04:44.608Z,83.27
2022-09-14T03:05:44.601Z,82.67
2022-09-14T03:06:44.576Z,82.26
2022-09-14T03:07:44.558Z,82.67
2022-09-14T03:08:44.726Z,82.56
2022-09-14T03:09:44.543Z,81.76
2022-09-14T03:10:44.603Z,82.56
2022-09-14T03:11:44.537Z,82.97
2022-09-14T03:12:44.527Z,83.68
2022-09-14T03:13:44.524Z,82.87
2022-09-14T03:14:44.508Z,83.78
2022-09-14T03:15:44.553Z,83.07
2022-09-14T03:16:44.499Z,83.27
2022-09-14T03:17:44.500Z,83.27
2022-09-14T03:18:44.488Z,82.87
2022-09-14T03:19:44.442Z,82.76
2022-09-14T03:20:44.439Z,83.07
2022-09-14T03:21:44.419Z,83.68
2022-09-14T03:22:44.421Z,83.78
2022-09-14T03:23:44.443Z,83.98
2022-09-14T03:24:44.387Z,84.28
2022-09-14T03:25:44.395Z,83.98
2022-09-14T03:26:44.396Z,84.39
2022-09-14T03:27:44.373Z,82.76
2022-09-14T03:28:44.387Z,82.67
2022-09-14T03:29:44.348Z,82.97
2022-09-14T03:30:44.328Z,83.37
2022-09-14T03:31:44.365Z,83.47
2022-09-14T03:32:44.324Z,83.58
2022-09-14T03:33:44.366Z,83.58
2022-09-14T03:34:44.303Z,84.19
2022-09-14T03:35:44.276Z,83.47
2022-09-14T03:36:44.280Z,83.51
2022-09-14T03:37:44.259Z,83.61
2022-09-14T03:38:44.261Z,83.72
2022-09-14T03:39:44.290Z,83.61
2022-09-14T03:40:44.249Z,84.33
2022-09-14T03:41:44.235Z,84.02
2022-09-14T03:42:44.219Z,84.63
2022-09-14T03:43:44.334Z,84.12
2022-09-14T03:44:44.225Z,84.83
2022-09-14T03:45:44.178Z,84.22
2022-09-14T03:46:44.264Z,84.33
2022-09-14T03:47:44.145Z,83.82
2022-09-14T03:48:44.140Z,83.72
2022-09-14T03:49:44.187Z,83.82
2022-09-14T03:50:44.142Z,84.93
2022-09-14T03:51:44.120Z,84.93
2022-09-14T03:52:44.118Z,85.84
2022-09-14T03:53:44.171Z,85.94
2022-09-14T03:54:44.091Z,85.33
2022-09-14T03:55:44.077Z,85.03
2022-09-14T03:56:44.073Z,85.44
2022-09-14T03:57:44.128Z,85.84
2022-09-14T03:58:44.062Z,85.64
2022-09-14T03:59:44.049Z,85.64
2022-09-14T04:00:44.050Z,85.74
2022-09-14T04:01:44.071Z,85.44
2022-09-14T04:02:44.063Z,85.24
2022-09-14T04:03:43.994Z,85.33
2022-09-14T04:04:44.018Z,85.54
2022-09-14T04:05:44.000Z,85.64
2022-09-14T04:06:44.009Z,85.44
2022-09-14T04:07:43.946Z,85.64
2022-09-14T04:08:44.022Z,85.74
2022-09-14T04:09:43.936Z,86.45
2022-09-14T04:10:43.967Z,86.65
2022-09-14T04:11:43.928Z,85.84
2022-09-14T04:12:43.943Z,85.94
2022-09-14T04:13:43.904Z,86.25
2022-09-14T04:14:43.904Z,86.35
2022-09-14T04:15:43.933Z,86.55
2022-09-14T04:16:43.923Z,86.15
2022-09-14T04:17:43.852Z,85.48
2022-09-14T04:18:43.856Z,85.88
2022-09-14T04:19:43.835Z,86.59
2022-09-14T04:20:43.830Z,86.90
2022-09-14T04:21:43.836Z,86.59
2022-09-14T04:22:43.833Z,87.20
2022-09-14T04:24:12.817Z,87.10
2022-09-14T04:24:43.811Z,87.71
2022-09-14T04:25:43.768Z,87.65
2022-09-14T04:26:43.784Z,87.65
2022-09-14T04:27:46.101Z,87.65
2022-09-14T04:28:43.762Z,87.74
2022-09-14T04:29:43.786Z,87.74
2022-09-14T04:30:43.741Z,87.85
2022-09-14T04:31:43.803Z,87.65
2022-09-14T04:32:43.716Z,87.85
2022-09-14T04:33:43.840Z,88.15
2022-09-14T04:34:43.714Z,88.25
2022-09-14T04:35:43.720Z,88.66
2022-09-14T04:36:43.708Z,88.76
2022-09-14T04:37:43.660Z,88.56
2022-09-14T04:38:43.640Z,88.31
2022-09-14T04:39:43.687Z,87.74
2022-09-14T04:40:43.633Z,87.71
2022-09-14T04:41:43.627Z,87.91
2022-09-14T04:42:43.608Z,88.56
2022-09-14T04:43:43.545Z,88.25
2022-09-14T04:44:43.543Z,88.76
2022-09-14T04:45:43.525Z,88.86
2022-09-14T04:46:46.858Z,89.06
2022-09-14T04:47:43.498Z,89.06
2022-09-14T04:48:43.526Z,88.86
2022-09-14T04:49:43.497Z,89.61
2022-09-14T04:50:43.474Z,90.12
2022-09-14T04:51:43.477Z,90.32
2022-09-14T04:52:43.477Z,90.12
2022-09-14T04:53:43.437Z,90.53
2022-09-14T04:54:43.449Z,90.62
2022-09-14T04:55:43.464Z,90.42
2022-09-14T04:56:43.419Z,90.28
2022-09-14T04:57:43.405Z,90.69
2022-09-14T04:58:43.416Z,90.48
2022-09-14T04:59:43.395Z,90.69
2022-09-14T05:00:43.383Z,90.48
2022-09-14T05:01:43.460Z,90.69
2022-09-14T05:02:43.425Z,90.69
2022-09-14T05:03:43.403Z,90.99
2022-09-14T05:04:43.330Z,90.48
2022-09-14T05:05:44.886Z,90.83
2022-09-14T05:06:43.363Z,90.83
2022-09-14T05:07:43.306Z,90.73
2022-09-14T05:08:43.319Z,90.73
2022-09-14T05:09:43.278Z,91.34
2022-09-14T05:10:43.331Z,91.44
2022-09-14T05:11:43.261Z,91.68
2022-09-14T05:12:43.259Z,91.78
2022-09-14T05:13:47.518Z,91.99
2022-09-14T05:14:43.287Z,91.85
2022-09-14T05:15:43.262Z,91.38
2022-09-14T05:16:43.237Z,91.54
2022-09-14T05:17:43.202Z,91.89
2022-09-14T05:18:43.292Z,91.94
2022-09-14T05:19:43.182Z,91.94
2022-09-14T05:20:43.165Z,92.05
2022-09-14T05:21:43.199Z,92.29
2022-09-14T05:22:43.195Z,92.19
2022-09-14T05:23:43.166Z,92.35
2022-09-14T05:24:43.152Z,92.45
2022-09-14T05:25:43.111Z,92.86
2022-09-14T05:26:43.148Z,92.65
2022-09-14T05:27:43.134Z,92.55
2022-09-14T05:28:43.105Z,92.55
2022-09-14T05:29:43.112Z,92.65
2022-09-14T05:30:43.135Z,92.65
2022-09-14T05:31:43.141Z,92.76
2022-09-14T05:32:43.074Z,92.86
2022-09-14T05:33:43.111Z,92.65
2022-09-14T05:34:43.067Z,92.55
2022-09-14T05:35:43.042Z,92.96
2022-09-14T05:36:43.034Z,93.57
2022-09-14T05:37:43.014Z,93.97
2022-09-14T05:38:42.995Z,94.07
2022-09-14T05:39:43.064Z,94.02
2022-09-14T05:40:43.008Z,94.22
2022-09-14T05:41:42.988Z,94.62
2022-09-14T05:42:42.957Z,94.73
2022-09-14T05:43:42.953Z,94.73
2022-09-14T05:44:42.995Z,94.73
2022-09-14T05:45:42.911Z,94.83
2022-09-14T05:46:43.197Z,94.83
2022-09-14T05:47:42.907Z,94.93
2022-09-14T05:48:42.953Z,95.03
2022-09-14T05:49:42.919Z,95.23
2022-09-14T05:50:42.869Z,95.34
2022-09-14T05:51:42.868Z,95.13
2022-09-14T05:52:42.861Z,95.23
2022-09-14T05:53:42.848Z,95.34
2022-09-14T05:54:42.879Z,95.23
2022-09-14T05:55:42.827Z,95.03
2022-09-14T05:56:42.827Z,95.13
2022-09-14T05:57:42.843Z,95.23
2022-09-14T05:58:42.858Z,95.23
2022-09-14T05:59:42.776Z,95.23
2022-09-14T06:00:42.859Z,95.23
2022-09-14T06:01:42.833Z,95.23
2022-09-14T06:02:42.782Z,95.23
2022-09-14T06:03:42.765Z,95.34
2022-09-14T06:04:42.751Z,95.34
2022-09-14T06:05:42.806Z,95.54
2022-09-14T06:06:52.111Z,95.74
2022-09-14T06:07:42.779Z,95.43
2022-09-14T06:08:42.697Z,95.74
2022-09-14T06:09:42.734Z,95.84
2022-09-14T06:10:42.899Z,95.99
2022-09-14T06:11:43.764Z,96.09
2022-09-14T06:12:42.849Z,96.15
2022-09-14T06:13:42.903Z,96.30
2022-09-14T06:14:42.660Z,96.19
2022-09-14T06:15:42.723Z,96.30
2022-09-14T06:16:42.650Z,96.30
2022-09-14T06:17:42.656Z,96.39
2022-09-14T06:18:42.610Z,96.50
2022-09-14T06:19:42.582Z,96.50
2022-09-14T06:20:42.673Z,96.50
2022-09-14T06:21:42.723Z,96.50
2022-09-14T06:22:42.575Z,96.50
2022-09-14T06:23:42.545Z,96.70
2022-09-14T06:24:42.545Z,97.00
2022-09-14T06:25:42.557Z,97.00
2022-09-14T06:26:42.620Z,96.90
2022-09-14T06:27:42.555Z,96.80
2022-09-14T06:28:42.513Z,97.00
2022-09-14T06:29:42.525Z,97.00
2022-09-14T06:30:42.577Z,97.00
2022-09-14T06:31:42.531Z,97.51
2022-09-14T06:32:42.552Z,98.07
2022-09-14T06:33:42.453Z,97.97
2022-09-14T06:34:42.518Z,97.92
2022-09-14T06:35:42.460Z,97.81
2022-09-14T06:36:42.468Z,97.71
2022-09-14T06:37:42.414Z,97.71
2022-09-14T06:38:42.382Z,97.61
2022-09-14T06:39:42.441Z,97.71
2022-09-14T06:40:42.401Z,97.71
2022-09-14T06:41:42.392Z,97.61
2022-09-14T06:42:42.386Z,97.51
2022-09-14T06:43:42.340Z,97.51
2022-09-14T06:44:42.328Z,97.61
2022-09-14T06:45:42.426Z,97.61
2022-09-14T06:46:46.949Z,97.61
2022-09-14T06:47:42.314Z,97.92
2022-09-14T06:48:42.315Z,98.12
2022-09-14T06:49:42.282Z,98.22
2022-09-14T06:50:42.265Z,98.32
2022-09-14T06:51:42.313Z,98.32
2022-09-14T06:52:42.243Z,98.32
2022-09-14T06:53:42.275Z,98.52
2022-09-14T06:54:42.217Z,98.52
2022-09-14T06:55:42.285Z,98.43
2022-09-14T06:56:42.218Z,98.93
2022-09-14T06:57:43.185Z,99.13
2022-09-14T06:58:42.184Z,98.52
2022-09-14T06:59:42.223Z,98.22
2022-09-14T07:00:42.163Z,98.12
2022-09-14T07:01:42.175Z,98.16
2022-09-14T07:02:42.229Z,98.16
2022-09-14T07:03:42.159Z,98.27
2022-09-14T07:04:42.160Z,98.16
2022-09-14T07:05:42.123Z,98.07
2022-09-14T07:06:42.144Z,98.16
2022-09-14T07:07:42.117Z,98.37
2022-09-14T07:08:42.200Z,98.57
2022-09-14T07:09:42.178Z,98.88
2022-09-14T07:10:42.073Z,99.18
2022-09-14T07:11:42.067Z,99.22
2022-09-14T07:12:42.084Z,99.22
2022-09-14T07:13:42.057Z,99.33
2022-09-14T07:14:42.073Z,99.33
2022-09-14T07:15:42.055Z,99.33
2022-09-14T07:16:42.049Z,99.22
2022-09-14T07:17:42.047Z,98.92
2022-09-14T07:18:41.983Z,98.72
2022-09-14T07:19:42.073Z,98.52
2022-09-14T07:20:41.933Z,98.72
2022-09-14T07:21:41.967Z,98.82
2022-09-14T07:22:41.955Z,98.62
2022-09-14T07:23:41.942Z,98.32
2022-09-14T07:24:41.968Z,98.72
2022-09-14T07:25:41.939Z,99.02
2022-09-14T07:26:41.923Z,99.13
2022-09-14T07:27:41.936Z,99.22
2022-09-14T07:28:41.857Z,99.13
2022-09-14T07:29:41.931Z,99.43
2022-09-14T07:30:41.982Z,99.33
2022-09-14T07:31:41.859Z,99.22
2022-09-14T07:32:41.853Z,99.02
2022-09-14T07:33:41.899Z,98.92
2022-09-14T07:34:41.854Z,98.92
2022-09-14T07:35:41.818Z,98.68
2022-09-14T07:36:41.785Z,98.57
2022-09-14T07:37:41.858Z,98.68
2022-09-14T07:38:52.231Z,98.88
2022-09-14T07:39:41.790Z,98.97
2022-09-14T07:40:41.771Z,98.88
2022-09-14T07:41:41.751Z,98.97
2022-09-14T07:42:41.771Z,98.16
2022-09-14T07:43:41.793Z,98.47
2022-09-14T07:44:41.716Z,98.68
2022-09-14T07:45:41.799Z,98.57
2022-09-14T07:46:41.750Z,98.47
2022-09-14T07:47:41.731Z,98.16
2022-09-14T07:48:41.715Z,98.27
2022-09-14T07:49:41.688Z,98.27
2022-09-14T07:50:41.664Z,98.47
2022-09-14T07:51:41.652Z,98.57
2022-09-14T07:52:41.660Z,99.04
2022-09-14T07:53:41.645Z,99.13
2022-09-14T07:54:41.630Z,98.73
2022-09-14T07:55:41.608Z,98.63
2022-09-14T07:56:41.639Z,98.83
2022-09-14T07:57:55.750Z,99.04
2022-09-14T07:58:41.705Z,98.93
2022-09-14T07:59:41.552Z,98.32
2022-09-14T08:00:41.564Z,98.12
2022-09-14T08:01:41.691Z,97.92
2022-09-14T08:02:41.566Z,97.77
2022-09-14T08:03:41.579Z,97.31
2022-09-14T08:04:41.634Z,96.80
2022-09-14T08:05:41.542Z,96.19
2022-09-14T08:06:41.529Z,96.50
2022-09-14T08:07:41.520Z,96.90
2022-09-14T08:08:41.575Z,97.61
2022-09-14T08:09:41.470Z,98.22
2022-09-14T08:10:41.457Z,98.38
2022-09-14T08:11:41.528Z,98.38
2022-09-14T08:12:41.463Z,98.48
2022-09-14T08:13:41.450Z,98.38
2022-09-14T08:14:41.889Z,97.00
2022-09-14T08:15:41.397Z,97.20
2022-09-14T08:16:41.694Z,97.41
2022-09-14T08:17:41.422Z,97.11
2022-09-14T08:18:41.366Z,97.61
2022-09-14T08:19:41.363Z,98.02
2022-09-14T08:20:41.373Z,97.31
2022-09-14T08:21:46.239Z,97.31
2022-09-14T08:22:41.362Z,97.11
2022-09-14T08:23:41.296Z,97.15
2022-09-14T08:24:41.360Z,97.45
2022-09-14T08:25:41.307Z,97.81
2022-09-14T08:26:41.306Z,97.92
2022-09-14T08:27:41.285Z,97.81
2022-09-14T08:28:41.255Z,97.81
2022-09-14T08:29:41.254Z,97.81
2022-09-14T08:30:41.246Z,98.22
2022-09-14T08:31:41.327Z,98.02
2022-09-14T08:32:41.267Z,97.92
2022-09-14T08:33:41.206Z,97.61
2022-09-14T08:34:41.223Z,97.92
2022-09-14T08:35:57.423Z,98.12
2022-09-14T08:36:41.165Z,98.73
2022-09-14T08:37:41.225Z,98.93
2022-09-14T08:38:41.146Z,98.43
2022-09-14T08:39:41.158Z,98.43
2022-09-14T08:40:41.200Z,98.83
2022-09-14T08:41:41.139Z,98.63
2022-09-14T08:42:41.139Z,98.43
2022-09-14T08:43:41.142Z,98.73
2022-09-14T08:44:41.123Z,98.93
2022-09-14T08:45:41.128Z,98.93
2022-09-14T08:46:41.092Z,98.63
2022-09-14T08:47:41.082Z,98.32
2022-09-14T08:48:41.130Z,98.68
2022-09-14T08:49:41.033Z,98.68
2022-09-14T08:50:41.111Z,98.99
2022-09-14T08:51:41.004Z,98.79
2022-09-14T08:52:41.010Z,98.58
2022-09-14T08:53:41.025Z,98.28
2022-09-14T08:54:40.985Z,98.43
2022-09-14T08:55:41.027Z,98.52
2022-09-14T08:56:40.948Z,98.43
2022-09-14T08:57:41.000Z,97.92
2022-09-14T08:58:47.534Z,97.81
2022-09-14T08:59:40.943Z,98.02
2022-09-14T09:00:40.982Z,98.02
2022-09-14T09:01:40.964Z,97.61
2022-09-14T09:02:40.941Z,98.12
2022-09-14T09:03:40.980Z,98.43
2022-09-14T09:04:40.900Z,98.63
2022-09-14T09:05:40.884Z,98.93
2022-09-14T09:06:40.866Z,98.52
2022-09-14T09:07:40.874Z,98.32
2022-09-14T09:08:40.918Z,98.43
2022-09-14T09:09:40.821Z,98.43
2022-09-14T09:10:40.847Z,98.12
2022-09-14T09:11:40.869Z,98.02
2022-09-14T09:12:40.764Z,98.02
2022-09-14T09:13:40.833Z,98.12
2022-09-14T09:14:40.743Z,97.86
2022-09-14T09:15:40.787Z,97.76
2022-09-14T09:16:40.819Z,97.66
2022-09-14T09:17:40.770Z,97.96
2022-09-14T09:18:40.810Z,98.27
2022-09-14T09:19:40.707Z,98.57
2022-09-14T09:20:40.723Z,98.68
2022-09-14T09:21:40.718Z,98.77
2022-09-14T09:22:40.706Z,98.83
2022-09-14T09:23:40.686Z,98.52
2022-09-14T09:24:40.739Z,98.63
2022-09-14T09:25:40.670Z,98.73
2022-09-14T09:26:40.679Z,99.04
2022-09-14T09:27:40.650Z,98.73
2022-09-14T09:28:40.614Z,98.52
2022-09-14T09:29:40.692Z,98.22
2022-09-14T09:30:40.641Z,97.81
2022-09-14T09:31:40.656Z,97.16
2022-09-14T09:32:40.598Z,96.45
2022-09-14T09:33:40.638Z,96.75
2022-09-14T09:34:40.546Z,96.86
2022-09-14T09:35:40.573Z,96.25
2022-09-14T09:36:40.545Z,96.15
2022-09-14T09:37:40.563Z,96.75
2022-09-14T09:38:40.546Z,97.36
2022-09-14T09:39:40.566Z,97.42
2022-09-14T09:40:40.519Z,97.42
2022-09-14T09:41:40.532Z,97.42
2022-09-14T09:42:40.499Z,97.92
2022-09-14T09:43:49.472Z,97.92
2022-09-14T09:44:40.452Z,97.72
2022-09-14T09:45:40.453Z,97.42
2022-09-14T09:46:40.457Z,97.11
2022-09-14T09:47:40.427Z,96.51
2022-09-14T09:48:40.468Z,96.51
2022-09-14T09:49:40.440Z,97.11
2022-09-14T09:50:40.429Z,96.91
2022-09-14T09:51:40.423Z,96.81
2022-09-14T09:52:40.390Z,96.81
2022-09-14T09:53:40.411Z,96.71
2022-09-14T09:54:40.369Z,96.51
2022-09-14T09:55:40.341Z,96.00
2022-09-14T09:56:40.428Z,95.79
2022-09-14T09:57:40.324Z,95.50
2022-09-14T09:58:40.359Z,95.79
2022-09-14T09:59:40.322Z,96.10
2022-09-14T10:00:40.370Z,95.90
2022-09-14T10:01:40.443Z,96.51
2022-09-14T10:02:40.314Z,96.71
2022-09-14T10:03:40.294Z,97.22
2022-09-14T10:04:40.269Z,97.62
2022-09-14T10:05:40.268Z,96.51
2022-09-14T10:06:40.228Z,96.81
2022-09-14T10:07:40.236Z,96.51
2022-09-14T10:08:40.255Z,96.20
2022-09-14T10:09:40.207Z,96.00
2022-09-14T10:10:40.194Z,96.51
2022-09-14T10:11:40.168Z,95.79
2022-09-14T10:12:40.172Z,96.51
2022-09-14T10:13:40.150Z,96.75
2022-09-14T10:14:40.143Z,95.94
2022-09-14T10:15:40.190Z,95.64
2022-09-14T10:16:40.132Z,95.74
2022-09-14T10:17:40.098Z,96.25
2022-09-14T10:18:40.124Z,96.66
2022-09-14T10:19:40.143Z,97.16
2022-09-14T10:20:40.126Z,97.06
2022-09-14T10:21:40.071Z,97.06
2022-09-14T10:22:40.090Z,96.35
2022-09-14T10:23:40.130Z,96.25
2022-09-14T10:24:40.032Z,96.35
2022-09-14T10:25:40.090Z,96.96
2022-09-14T10:26:40.055Z,97.47
2022-09-14T10:27:40.029Z,97.77
2022-09-14T10:28:40.087Z,98.07
2022-09-14T10:29:39.979Z,97.87
2022-09-14T10:30:39.983Z,97.67
2022-09-14T10:31:40.058Z,97.16
2022-09-14T10:32:39.945Z,96.66
2022-09-14T10:33:39.924Z,96.75
2022-09-14T10:34:39.952Z,96.96
2022-09-14T10:35:39.909Z,96.75
2022-09-14T10:36:39.909Z,96.86
2022-09-14T10:37:39.933Z,96.45
2022-09-14T10:38:39.956Z,95.84
2022-09-14T10:39:39.945Z,95.84
2022-09-14T10:40:39.882Z,96.25
2022-09-14T10:41:39.856Z,96.35
2022-09-14T10:42:39.887Z,96.55
2022-09-14T10:43:39.822Z,97.06
2022-09-14T10:44:39.823Z,97.11
2022-09-14T10:45:39.820Z,97.11
2022-09-14T10:46:39.850Z,97.31
2022-09-14T10:47:39.794Z,97.61
2022-09-14T10:48:39.933Z,98.02
2022-09-14T10:49:39.794Z,98.12
2022-09-14T10:50:39.786Z,98.43
2022-09-14T10:51:39.762Z,98.52
2022-09-14T10:52:39.763Z,98.38
2022-09-14T10:53:39.731Z,97.81
2022-09-14T10:54:39.742Z,97.41
2022-09-14T10:55:39.713Z,97.20
2022-09-14T10:56:39.741Z,97.20
2022-09-14T10:57:39.740Z,97.51
2022-09-14T10:58:39.802Z,97.61
2022-09-14T10:59:39.695Z,97.71
2022-09-14T11:00:39.665Z,97.81
2022-09-14T11:01:39.763Z,98.02
2022-09-14T11:02:39.747Z,98.43
2022-09-14T11:03:43.974Z,98.32
2022-09-14T11:04:39.627Z,98.22
2022-09-14T11:05:39.597Z,98.63
2022-09-14T11:06:39.641Z,98.93
2022-09-14T11:07:39.696Z,99.04
2022-09-14T11:08:39.577Z,99.13
2022-09-14T11:09:39.557Z,99.24
2022-09-14T11:10:39.582Z,99.33
2022-09-14T11:11:39.532Z,99.33
2022-09-14T11:12:39.621Z,99.13
2022-09-14T11:13:39.650Z,99.04
2022-09-14T11:14:39.561Z,99.04
2022-09-14T11:15:39.675Z,99.13
2022-09-14T11:16:39.644Z,99.44
2022-09-14T11:17:39.590Z,99.24
2022-09-14T11:18:39.606Z,99.24
2022-09-14T11:19:39.593Z,99.08
2022-09-14T11:20:42.802Z,99.08
2022-09-14T11:21:39.571Z,98.63
2022-09-14T11:22:39.503Z,98.63
2022-09-14T11:23:39.528Z,99.04
2022-09-14T11:24:39.549Z,99.24
2022-09-14T11:25:39.446Z,99.44
2022-09-14T11:26:42.336Z,99.64
2022-09-14T11:27:39.508Z,99.60
2022-09-14T11:28:39.881Z,99.69
2022-09-14T11:29:39.655Z,99.99
2022-09-14T11:30:39.820Z,99.60
2022-09-14T11:31:40.018Z,99.49
2022-09-14T11:32:39.393Z,99.29
2022-09-14T11:33:39.770Z,99.49
2022-09-14T11:34:39.411Z,99.69
2022-09-14T11:35:39.646Z,99.80
2022-09-14T11:36:39.466Z,99.39
2022-09-14T11:37:39.411Z,99.29
2022-09-14T11:38:39.460Z,99.39
2022-09-14T11:39:39.382Z,99.29
2022-09-14T11:40:39.550Z,99.29
2022-09-14T11:41:39.482Z,99.08
2022-09-14T11:42:39.556Z,98.33
2022-09-14T11:43:39.533Z,97.83
2022-09-14T11:44:39.452Z,97.22
2022-09-14T11:45:39.354Z,97.02
2022-09-14T11:46:39.457Z,96.71
2022-09-14T11:47:39.672Z,97.42
2022-09-14T11:48:42.819Z,97.62
2022-09-14T11:49:39.410Z,97.22
2022-09-14T11:50:39.430Z,96.91
2022-09-14T11:51:39.421Z,97.02
2022-09-14T11:52:39.356Z,96.51
2022-09-14T11:53:39.261Z,96.81
2022-09-14T11:54:42.424Z,96.71
2022-09-14T11:55:39.204Z,96.61
2022-09-14T11:56:39.453Z,97.52
2022-09-14T11:57:39.164Z,97.72
2022-09-14T11:58:39.213Z,97.62
2022-09-14T11:59:39.300Z,97.92
2022-09-14T12:00:39.137Z,98.23
2022-09-14T12:01:39.089Z,96.51
2022-09-14T12:02:39.220Z,95.70
2022-09-14T12:03:39.078Z,95.74
2022-09-14T12:04:39.110Z,96.15
2022-09-14T12:05:39.166Z,96.55
2022-09-14T12:06:39.098Z,96.96
2022-09-14T12:07:39.100Z,97.36
2022-09-14T12:08:39.155Z,97.72
2022-09-14T12:09:39.122Z,98.54
2022-09-14T12:10:42.789Z,98.23
2022-09-14T12:11:38.989Z,98.23
2022-09-14T12:12:39.026Z,98.13
2022-09-14T12:13:39.019Z,98.33
2022-09-14T12:14:38.931Z,97.52
2022-09-14T12:15:39.293Z,97.22
2022-09-14T12:16:39.089Z,97.11
2022-09-14T12:17:40.523Z,97.22
2022-09-14T12:18:39.031Z,96.91
2022-09-14T12:19:39.511Z,96.91
2022-09-14T12:20:39.136Z,97.32
2022-09-14T12:21:38.945Z,98.03
2022-09-14T12:22:38.983Z,98.74
2022-09-14T12:23:39.072Z,98.84
2022-09-14T12:24:38.865Z,97.83
2022-09-14T12:25:38.929Z,98.33
2022-09-14T12:26:38.948Z,98.74
2022-09-14T12:27:38.845Z,98.94
2022-09-14T12:28:38.941Z,98.03
2022-09-14T12:29:38.807Z,97.72
2022-09-14T12:30:40.940Z,97.42
2022-09-14T12:31:38.790Z,97.83
2022-09-14T12:32:38.743Z,97.62
2022-09-14T12:33:38.760Z,97.97
2022-09-14T12:34:38.768Z,97.87
2022-09-14T12:35:38.734Z,97.36
2022-09-14T12:36:38.756Z,97.56
2022-09-14T12:37:38.736Z,98.07
2022-09-14T12:38:38.692Z,97.81
2022-09-14T12:39:38.913Z,98.02
2022-09-14T12:40:39.006Z,97.87
2022-09-14T12:41:38.872Z,97.67
2022-09-14T12:42:38.684Z,98.07
2022-09-14T12:43:38.713Z,98.58
2022-09-14T12:44:38.614Z,98.48
2022-09-14T12:45:38.627Z,98.48
2022-09-14T12:46:38.797Z,98.48
2022-09-14T12:47:38.609Z,98.18
2022-09-14T12:48:38.668Z,98.28
2022-09-14T12:49:38.575Z,98.58
2022-09-14T12:50:38.575Z,98.58
2022-09-14T12:51:38.567Z,98.79
2022-09-14T12:52:38.662Z,98.48